< < Back
Terminal Aerodrome Forecast


Current Version              Previous Versions:   1  2  3  4  5  6  7  8  9  

Terminal Aerodrome Forecast

444
FTUS44 KOHX 280500
TAFCSV
TAF
KCSV 280525Z 2806/2906 33007KT P6SM OVC016
     FM280800 33003KT P6SM SCT016
     FM281000 18003KT P6SM BKN120
     FM281700 20004KT P6SM SKC
     FM290000 19004KT P6SM BKN200=

Latest METAR

957
SAUS70 KWBC 281700 RRO
MTRCSV
METAR KCSV 281653Z AUTO VRB04KT 10SM CLR 02/M11 A3033 RMK AO2 SLP285
T00171106


USA.gov is the U.S. government's official web portal to all federal, state and local government web resources and services.